Time;durP1;ratioP1;P1;durP2;ratioP2;P2;SDS_P1;SDS_P2;PMS_P1;PMS_P2;Temp;Humidity;BMP_temperature;BMP_pressure;BME280_temperature;BME280_humidity;BME280_pressure;Samples;Min_cycle;Max_cycle;Signal;HPM_P1;HPM_P2
2023/01/27 00:00:20;;;;;;;14.65;3.75;;;;;;;;;;4887668;28;99968;-73
2023/01/27 00:02:47;;;;;;;14.60;4.53;;;;;;;;;;4892483;28;99167;-74
2023/01/27 00:05:14;;;;;;;14.30;3.72;;;;;;;;;;4889137;28;100673;-74
2023/01/27 00:07:44;;;;;;;16.30;5.47;;;;;;;;;;4888796;28;98298;-73
2023/01/27 00:10:14;;;;;;;6.05;3.42;;;;;;;;;;4887939;28;98769;-74
2023/01/27 00:15:27;;;;;;;14.00;3.90;;;;;;;;;;4885012;28;98308;-74
2023/01/27 00:17:53;;;;;;;7.75;3.63;;;;;;;;;;4888024;28;99419;-75
2023/01/27 00:25:57;;;;;;;6.85;3.78;;;;;;;;;;4890250;28;99610;-74
2023/01/27 00:28:24;;;;;;;10.02;3.35;;;;;;;;;;4891001;28;98250;-74
2023/01/27 00:30:51;;;;;;;5.85;2.63;;;;;;;;;;4891704;28;98473;-75
2023/01/27 00:33:23;;;;;;;11.00;3.70;;;;;;;;;;4906146;28;100150;-74
2023/01/27 00:35:55;;;;;;;5.05;3.28;;;;;;;;;;4891149;28;98101;-75
2023/01/27 00:38:21;;;;;;;7.53;3.33;;;;;;;;;;4891698;28;98294;-73
2023/01/27 00:41:14;;;;;;;8.70;4.68;;;;;;;;;;4889526;28;102129;-74
2023/01/27 00:43:34;;;;;;;13.75;4.75;;;;;;;;;;4891832;28;99339;-75
2023/01/27 00:46:01;;;;;;;8.35;3.60;;;;;;;;;;4889530;28;101592;-74
2023/01/27 00:48:27;;;;;;;6.65;4.90;;;;;;;;;;4893354;28;99558;-73
2023/01/27 00:50:53;;;;;;;11.07;5.10;;;;;;;;;;4891038;28;99938;-74
2023/01/27 00:53:20;;;;;;;9.80;4.47;;;;;;;;;;4891178;28;98739;-73
2023/01/27 00:55:46;;;;;;;10.73;4.78;;;;;;;;;;4884689;28;100011;-73
2023/01/27 00:58:13;;;;;;;6.70;4.88;;;;;;;;;;4890959;28;100084;-73
2023/01/27 01:00:40;;;;;;;14.30;4.25;;;;;;;;;;4889802;28;99825;-74
2023/01/27 01:03:07;;;;;;;17.95;6.45;;;;;;;;;;4884245;28;99857;-75
2023/01/27 01:05:33;;;;;;;12.00;5.53;;;;;;;;;;4891547;28;98267;-74
2023/01/27 01:08:00;;;;;;;8.50;4.25;;;;;;;;;;4894081;28;98728;-73
2023/01/27 01:10:27;;;;;;;10.68;5.65;;;;;;;;;;4882807;28;99410;-73
2023/01/27 01:12:53;;;;;;;14.43;6.95;;;;;;;;;;4888961;28;100183;-75
2023/01/27 01:15:20;;;;;;;11.80;6.38;;;;;;;;;;4889573;28;98476;-74
2023/01/27 01:17:46;;;;;;;18.63;7.35;;;;;;;;;;4884723;28;98642;-74
2023/01/27 01:20:13;;;;;;;11.38;4.95;;;;;;;;;;4890666;28;100621;-73
2023/01/27 01:22:39;;;;;;;21.33;7.65;;;;;;;;;;4904854;28;98667;-73
2023/01/27 01:25:06;;;;;;;13.65;7.78;;;;;;;;;;4889547;28;98651;-74
2023/01/27 01:27:33;;;;;;;16.02;6.93;;;;;;;;;;4891062;28;100045;-74
2023/01/27 01:30:00;;;;;;;12.70;5.55;;;;;;;;;;4891994;28;98968;-74
2023/01/27 01:32:26;;;;;;;16.55;6.57;;;;;;;;;;4904674;28;101010;-74
2023/01/27 01:34:52;;;;;;;16.30;6.38;;;;;;;;;;4890373;28;98272;-74
2023/01/27 01:37:19;;;;;;;12.90;6.30;;;;;;;;;;4890095;28;99414;-74
2023/01/27 01:39:45;;;;;;;14.63;6.93;;;;;;;;;;4890386;28;98806;-74
2023/01/27 01:42:11;;;;;;;15.27;6.75;;;;;;;;;;4904582;28;98367;-74
2023/01/27 01:44:42;;;;;;;15.95;7.55;;;;;;;;;;4883750;28;98575;-74
2023/01/27 01:47:13;;;;;;;9.85;5.35;;;;;;;;;;4889889;28;98994;-74
2023/01/27 01:49:40;;;;;;;11.73;6.10;;;;;;;;;;4904594;28;98248;-74
2023/01/27 01:52:12;;;;;;;11.23;6.50;;;;;;;;;;4892254;28;98338;-73
2023/01/27 01:54:41;;;;;;;10.18;5.18;;;;;;;;;;4890229;28;99572;-75
2023/01/27 01:57:19;;;;;;;9.48;6.18;;;;;;;;;;4889552;28;98352;-74
2023/01/27 01:59:54;;;;;;;9.48;5.05;;;;;;;;;;4893434;28;98683;-75
2023/01/27 02:02:21;;;;;;;8.90;5.90;;;;;;;;;;4891205;28;98275;-74
2023/01/27 02:04:53;;;;;;;10.45;6.47;;;;;;;;;;4889898;28;98409;-74
2023/01/27 02:07:24;;;;;;;8.35;5.32;;;;;;;;;;4890403;28;98763;-75
2023/01/27 02:09:54;;;;;;;10.35;6.15;;;;;;;;;;4890426;28;98222;-75
2023/01/27 02:12:21;;;;;;;13.25;6.13;;;;;;;;;;4889413;28;98293;-74
2023/01/27 02:14:47;;;;;;;9.02;6.00;;;;;;;;;;4892734;28;99191;-74
2023/01/27 02:17:14;;;;;;;9.52;6.75;;;;;;;;;;4889850;28;99673;-74
2023/01/27 02:19:48;;;;;;;9.13;5.97;;;;;;;;;;4889268;28;100099;-73
2023/01/27 02:22:23;;;;;;;16.17;7.80;;;;;;;;;;4904807;28;99191;-73
2023/01/27 02:24:54;;;;;;;12.88;7.65;;;;;;;;;;4889883;28;99553;-73
2023/01/27 02:27:20;;;;;;;12.02;5.97;;;;;;;;;;4889246;28;98709;-73
2023/01/27 02:29:47;;;;;;;5.63;5.13;;;;;;;;;;4889713;28;98316;-73
2023/01/27 02:32:24;;;;;;;13.32;7.45;;;;;;;;;;4888552;28;98528;-73
2023/01/27 02:34:54;;;;;;;13.52;8.20;;;;;;;;;;4888945;28;98866;-73
2023/01/27 02:37:22;;;;;;;7.97;7.13;;;;;;;;;;4907608;28;98425;-73
2023/01/27 02:39:50;;;;;;;12.40;7.53;;;;;;;;;;4903473;28;101704;-75
2023/01/27 02:42:17;;;;;;;11.90;8.48;;;;;;;;;;4903090;28;98411;-73
2023/01/27 02:44:43;;;;;;;14.10;8.30;;;;;;;;;;4904039;28;101290;-73
2023/01/27 02:47:10;;;;;;;12.50;9.18;;;;;;;;;;4902885;28;99342;-73
2023/01/27 02:49:36;;;;;;;10.38;8.23;;;;;;;;;;4888025;28;98421;-74
2023/01/27 02:52:03;;;;;;;16.85;8.18;;;;;;;;;;4888082;28;99547;-75
2023/01/27 02:54:30;;;;;;;8.48;7.15;;;;;;;;;;4887399;28;100231;-74
2023/01/27 02:56:57;;;;;;;15.77;10.18;;;;;;;;;;4890532;28;98654;-74
2023/01/27 02:59:25;;;;;;;11.05;8.10;;;;;;;;;;4887755;28;101184;-74
2023/01/27 03:01:52;;;;;;;9.90;8.35;;;;;;;;;;4887070;28;98694;-74
2023/01/27 03:04:18;;;;;;;14.75;10.15;;;;;;;;;;4903038;28;99467;-74
2023/01/27 03:06:45;;;;;;;9.05;8.10;;;;;;;;;;4887726;28;101238;-74
2023/01/27 03:09:11;;;;;;;6.88;6.32;;;;;;;;;;4886800;28;98288;-74
2023/01/27 03:19:53;;;;;;;14.27;9.68;;;;;;;;;;4894426;28;101214;-74
2023/01/27 03:22:20;;;;;;;11.18;9.55;;;;;;;;;;4897332;28;99620;-74
2023/01/27 03:24:46;;;;;;;12.00;10.43;;;;;;;;;;4887783;28;100393;-74
2023/01/27 03:27:13;;;;;;;9.32;8.43;;;;;;;;;;4903553;28;101983;-74
2023/01/27 03:30:03;;;;;;;9.65;8.40;;;;;;;;;;4886736;28;99886;-74
2023/01/27 03:32:30;;;;;;;12.15;10.80;;;;;;;;;;4903702;28;101319;-73
2023/01/27 03:35:15;;;;;;;10.45;9.05;;;;;;;;;;4887460;28;99261;-74
2023/01/27 03:46:19;;;;;;;11.55;7.57;;;;;;;;;;4903562;28;101103;-74
2023/01/27 03:48:48;;;;;;;8.70;7.15;;;;;;;;;;4888617;28;100122;-74
2023/01/27 03:51:15;;;;;;;7.75;7.05;;;;;;;;;;4881905;28;98252;-74
2023/01/27 03:53:41;;;;;;;7.25;6.55;;;;;;;;;;4888717;28;99728;-74
2023/01/27 03:56:08;;;;;;;11.95;7.30;;;;;;;;;;4883702;28;100252;-74
2023/01/27 03:58:35;;;;;;;14.88;7.88;;;;;;;;;;4891302;28;98880;-74
2023/01/27 04:01:06;;;;;;;10.48;7.45;;;;;;;;;;4891573;28;99625;-74
2023/01/27 04:09:12;;;;;;;6.18;5.55;;;;;;;;;;4886323;28;98706;-74
2023/01/27 04:14:30;;;;;;;6.13;5.60;;;;;;;;;;4888642;28;99337;-74
2023/01/27 04:17:02;;;;;;;8.13;6.10;;;;;;;;;;4891505;28;98982;-74
2023/01/27 04:19:28;;;;;;;4.40;4.20;;;;;;;;;;4891078;28;98626;-74
2023/01/27 04:21:55;;;;;;;11.45;5.28;;;;;;;;;;4890822;28;98629;-74
2023/01/27 04:24:22;;;;;;;7.18;4.88;;;;;;;;;;4891476;28;100209;-74
2023/01/27 04:26:53;;;;;;;5.55;4.88;;;;;;;;;;4890708;28;98315;-74
2023/01/27 04:29:21;;;;;;;5.82;5.25;;;;;;;;;;4895091;28;98149;-74
2023/01/27 04:31:48;;;;;;;5.10;4.68;;;;;;;;;;4891490;28;98283;-74
2023/01/27 04:34:14;;;;;;;4.35;4.03;;;;;;;;;;4890734;28;99711;-74
2023/01/27 04:36:41;;;;;;;4.43;4.07;;;;;;;;;;4890588;28;99929;-74
2023/01/27 04:39:08;;;;;;;4.45;4.18;;;;;;;;;;4891680;28;98332;-74
2023/01/27 04:41:34;;;;;;;4.43;4.13;;;;;;;;;;4891244;28;99241;-73
2023/01/27 04:44:01;;;;;;;4.90;4.55;;;;;;;;;;4890929;28;100110;-73
2023/01/27 04:46:28;;;;;;;4.35;4.05;;;;;;;;;;4890865;28;98319;-73
2023/01/27 04:48:54;;;;;;;4.20;3.90;;;;;;;;;;4890573;28;98339;-74
2023/01/27 04:51:20;;;;;;;3.95;3.65;;;;;;;;;;4893878;28;99942;-73
2023/01/27 04:53:47;;;;;;;3.13;2.83;;;;;;;;;;4890706;28;98913;-73
2023/01/27 04:56:19;;;;;;;4.05;3.75;;;;;;;;;;4890693;28;100078;-74
2023/01/27 04:58:45;;;;;;;7.22;4.13;;;;;;;;;;4886142;28;98260;-73
2023/01/27 05:01:12;;;;;;;4.05;3.75;;;;;;;;;;4890505;28;99647;-74
2023/01/27 05:03:38;;;;;;;4.18;3.90;;;;;;;;;;4891026;28;98980;-74
2023/01/27 05:06:05;;;;;;;4.85;3.67;;;;;;;;;;4890368;28;99566;-73
2023/01/27 05:08:31;;;;;;;5.10;4.30;;;;;;;;;;4891847;28;98769;-73
2023/01/27 05:10:57;;;;;;;3.92;3.63;;;;;;;;;;4893081;28;99919;-73
2023/01/27 05:13:24;;;;;;;4.60;4.15;;;;;;;;;;4890771;28;99409;-73
2023/01/27 05:15:50;;;;;;;3.95;3.53;;;;;;;;;;4890552;28;99094;-73
2023/01/27 05:18:16;;;;;;;4.35;3.95;;;;;;;;;;4890723;28;98281;-73
2023/01/27 05:20:43;;;;;;;3.05;2.88;;;;;;;;;;4897485;28;98745;-73
2023/01/27 05:25:54;;;;;;;3.28;3.08;;;;;;;;;;4892683;28;99518;-74
2023/01/27 05:28:20;;;;;;;4.03;3.72;;;;;;;;;;4890974;28;99225;-72
2023/01/27 05:30:47;;;;;;;4.72;3.72;;;;;;;;;;4890111;28;100609;-74
2023/01/27 05:33:13;;;;;;;3.33;3.13;;;;;;;;;;4893269;28;99336;-73
2023/01/27 05:35:39;;;;;;;4.88;3.60;;;;;;;;;;4889796;28;99205;-73
2023/01/27 05:38:06;;;;;;;5.20;4.03;;;;;;;;;;4889492;28;99079;-72
2023/01/27 05:40:32;;;;;;;3.67;3.38;;;;;;;;;;4890316;28;99479;-73
2023/01/27 05:42:58;;;;;;;5.32;3.78;;;;;;;;;;4889243;28;99348;-73
2023/01/27 05:45:25;;;;;;;3.67;3.20;;;;;;;;;;4890265;28;98332;-73
2023/01/27 05:47:51;;;;;;;6.80;3.40;;;;;;;;;;4890645;28;99437;-74
2023/01/27 05:50:17;;;;;;;2.80;2.60;;;;;;;;;;4889413;28;100172;-73
2023/01/27 05:52:44;;;;;;;3.90;3.33;;;;;;;;;;4890608;28;98287;-73
2023/01/27 05:55:10;;;;;;;4.50;3.67;;;;;;;;;;4893087;28;99452;-73
2023/01/27 05:57:37;;;;;;;3.67;3.38;;;;;;;;;;4888756;28;98275;-74
2023/01/27 06:00:04;;;;;;;3.88;3.35;;;;;;;;;;4888717;28;98824;-72
2023/01/27 06:02:33;;;;;;;3.92;3.67;;;;;;;;;;4889911;28;98758;-73
2023/01/27 06:04:59;;;;;;;2.83;2.50;;;;;;;;;;4889294;28;98475;-73
2023/01/27 06:07:26;;;;;;;2.67;2.47;;;;;;;;;;4890198;28;98585;-72
2023/01/27 06:09:52;;;;;;;2.55;2.35;;;;;;;;;;4889569;28;99978;-73
2023/01/27 06:12:19;;;;;;;5.30;2.85;;;;;;;;;;4889294;28;98222;-74
2023/01/27 06:14:45;;;;;;;3.17;2.53;;;;;;;;;;4890292;28;98635;-74
2023/01/27 06:17:11;;;;;;;2.03;1.92;;;;;;;;;;4892719;28;99017;-72
2023/01/27 06:19:38;;;;;;;2.70;1.83;;;;;;;;;;4889151;28;99777;-74
2023/01/27 06:22:04;;;;;;;2.10;2.00;;;;;;;;;;4889932;28;99046;-72
2023/01/27 06:24:30;;;;;;;2.90;2.25;;;;;;;;;;4889115;28;99361;-73
2023/01/27 06:26:57;;;;;;;3.20;2.05;;;;;;;;;;4888624;28;99652;-73
2023/01/27 06:29:23;;;;;;;2.35;2.25;;;;;;;;;;4889600;28;100189;-73
2023/01/27 06:31:49;;;;;;;6.18;2.40;;;;;;;;;;4889943;28;98263;-73
2023/01/27 06:34:16;;;;;;;4.72;2.65;;;;;;;;;;4882897;28;98797;-73
2023/01/27 06:36:42;;;;;;;2.20;2.10;;;;;;;;;;4889683;28;100175;-73
2023/01/27 06:39:10;;;;;;;6.45;2.47;;;;;;;;;;4891948;28;99712;-72
2023/01/27 06:41:37;;;;;;;4.30;2.70;;;;;;;;;;4889670;28;100066;-73
2023/01/27 06:44:03;;;;;;;2.13;2.03;;;;;;;;;;4889431;28;98435;-73
2023/01/27 06:46:30;;;;;;;4.35;2.47;;;;;;;;;;4888783;28;98417;-73
2023/01/27 06:48:56;;;;;;;2.95;2.72;;;;;;;;;;4888328;28;100232;-73
2023/01/27 06:51:23;;;;;;;2.60;2.40;;;;;;;;;;4889426;28;98582;-74
2023/01/27 06:53:49;;;;;;;2.45;2.35;;;;;;;;;;4889059;28;99875;-74
2023/01/27 06:56:15;;;;;;;2.13;2.03;;;;;;;;;;4888635;28;99990;-72
2023/01/27 06:58:43;;;;;;;2.22;2.00;;;;;;;;;;4888839;28;98256;-74
2023/01/27 07:01:09;;;;;;;2.70;2.60;;;;;;;;;;4891633;28;99072;-74
2023/01/27 07:03:36;;;;;;;2.40;2.30;;;;;;;;;;4887236;28;98302;-74
2023/01/27 07:06:02;;;;;;;4.00;2.60;;;;;;;;;;4889197;28;99700;-74
2023/01/27 07:08:28;;;;;;;2.30;2.20;;;;;;;;;;4879103;28;100607;-74
2023/01/27 07:10:55;;;;;;;2.60;2.00;;;;;;;;;;4887773;28;98307;-74
2023/01/27 07:13:22;;;;;;;2.45;2.25;;;;;;;;;;4886989;28;99958;-74
2023/01/27 07:15:52;;;;;;;2.20;2.00;;;;;;;;;;4883423;28;100204;-74
2023/01/27 07:18:19;;;;;;;2.33;2.22;;;;;;;;;;4884875;28;98499;-74
2023/01/27 07:20:45;;;;;;;3.08;2.80;;;;;;;;;;4891311;28;99501;-74
2023/01/27 07:23:12;;;;;;;8.25;2.95;;;;;;;;;;4880988;28;98346;-74
2023/01/27 07:25:38;;;;;;;3.67;2.30;;;;;;;;;;4887644;28;98756;-74
2023/01/27 07:28:05;;;;;;;2.47;2.22;;;;;;;;;;4887892;28;99306;-74
2023/01/27 07:30:32;;;;;;;2.38;2.20;;;;;;;;;;4890045;28;98285;-75
2023/01/27 07:33:06;;;;;;;6.28;3.17;;;;;;;;;;4889385;28;98757;-73
2023/01/27 07:35:32;;;;;;;3.05;2.67;;;;;;;;;;4884703;28;99424;-75
2023/01/27 07:37:59;;;;;;;2.75;2.55;;;;;;;;;;4890716;28;99130;-75
2023/01/27 07:40:25;;;;;;;5.75;3.35;;;;;;;;;;4891910;28;99513;-75
2023/01/27 07:42:51;;;;;;;3.50;2.78;;;;;;;;;;4888106;28;100053;-75
2023/01/27 07:45:18;;;;;;;5.55;2.78;;;;;;;;;;4889989;28;100984;-74
2023/01/27 07:47:44;;;;;;;4.43;2.58;;;;;;;;;;4890194;28;99178;-73
2023/01/27 07:50:11;;;;;;;2.60;2.40;;;;;;;;;;4888724;28;99702;-73
2023/01/27 07:52:38;;;;;;;2.25;2.15;;;;;;;;;;4891607;28;100343;-75
2023/01/27 07:55:04;;;;;;;3.38;2.45;;;;;;;;;;4890106;28;100187;-75
2023/01/27 07:57:31;;;;;;;3.25;2.35;;;;;;;;;;4886957;28;98350;-74
2023/01/27 07:59:57;;;;;;;3.60;2.00;;;;;;;;;;4889412;28;98711;-73
2023/01/27 08:02:24;;;;;;;2.60;2.33;;;;;;;;;;4889920;28;100394;-75
2023/01/27 08:04:51;;;;;;;4.85;2.13;;;;;;;;;;4890367;28;100537;-75
2023/01/27 08:07:19;;;;;;;3.03;2.30;;;;;;;;;;4890729;28;100059;-75
2023/01/27 08:09:45;;;;;;;2.65;2.33;;;;;;;;;;4890005;28;100360;-74
2023/01/27 08:12:12;;;;;;;2.50;2.30;;;;;;;;;;4890573;28;98484;-73
2023/01/27 08:14:38;;;;;;;5.18;2.20;;;;;;;;;;4897119;28;99030;-73
2023/01/27 08:17:05;;;;;;;2.92;2.25;;;;;;;;;;4890420;28;98343;-75
2023/01/27 08:19:31;;;;;;;6.00;2.40;;;;;;;;;;4891226;28;99576;-74
2023/01/27 08:21:57;;;;;;;4.20;2.42;;;;;;;;;;4891142;28;100266;-73
2023/01/27 08:24:24;;;;;;;2.58;2.17;;;;;;;;;;4891304;28;98240;-74
2023/01/27 08:26:50;;;;;;;5.20;2.45;;;;;;;;;;4893346;28;98533;-73
2023/01/27 08:29:16;;;;;;;2.33;2.13;;;;;;;;;;4891575;28;98476;-73
2023/01/27 08:31:43;;;;;;;2.05;1.95;;;;;;;;;;4891119;28;99296;-74
2023/01/27 08:34:09;;;;;;;2.63;2.42;;;;;;;;;;4889601;28;98921;-74
2023/01/27 08:36:40;;;;;;;2.42;2.33;;;;;;;;;;4891462;28;99128;-75
2023/01/27 08:39:07;;;;;;;8.70;2.67;;;;;;;;;;4890221;28;99666;-75
2023/01/27 08:41:33;;;;;;;2.60;2.40;;;;;;;;;;4890304;28;100008;-75
2023/01/27 08:44:00;;;;;;;2.05;1.95;;;;;;;;;;4890681;28;98299;-75
2023/01/27 08:46:26;;;;;;;2.38;2.17;;;;;;;;;;4890552;28;98565;-75
2023/01/27 08:48:53;;;;;;;1.92;1.83;;;;;;;;;;4893807;28;99096;-74
2023/01/27 08:51:19;;;;;;;2.45;2.22;;;;;;;;;;4890013;28;99615;-72
2023/01/27 08:53:45;;;;;;;2.35;1.52;;;;;;;;;;4890689;28;99930;-75
2023/01/27 08:56:12;;;;;;;2.33;2.13;;;;;;;;;;4890994;28;98295;-74
2023/01/27 08:58:39;;;;;;;3.33;2.15;;;;;;;;;;4892526;28;99647;-73
2023/01/27 09:01:06;;;;;;;3.47;2.25;;;;;;;;;;4890363;28;99233;-74
2023/01/27 09:03:34;;;;;;;1.50;1.50;;;;;;;;;;4891127;28;98885;-74
2023/01/27 09:06:02;;;;;;;2.85;2.05;;;;;;;;;;4891060;28;98675;-74
2023/01/27 09:08:29;;;;;;;3.58;2.42;;;;;;;;;;4890495;28;100193;-75
2023/01/27 09:10:55;;;;;;;2.10;2.00;;;;;;;;;;4893789;28;98155;-72
2023/01/27 09:13:21;;;;;;;1.70;1.60;;;;;;;;;;4890615;28;99930;-74
2023/01/27 09:15:51;;;;;;;3.60;2.10;;;;;;;;;;4889416;28;99012;-73
2023/01/27 09:18:18;;;;;;;3.28;2.17;;;;;;;;;;4890852;28;98994;-74
2023/01/27 09:20:44;;;;;;;2.25;2.10;;;;;;;;;;4891173;28;99207;-74
2023/01/27 09:23:11;;;;;;;5.13;2.88;;;;;;;;;;4889976;28;99064;-74
2023/01/27 09:25:38;;;;;;;2.80;2.20;;;;;;;;;;4890371;28;99451;-74
2023/01/27 09:28:04;;;;;;;4.03;2.38;;;;;;;;;;4889424;28;100076;-74
2023/01/27 09:30:31;;;;;;;2.22;2.03;;;;;;;;;;4893893;28;98337;-73
2023/01/27 09:32:58;;;;;;;4.07;2.45;;;;;;;;;;4890161;28;99206;-74
2023/01/27 09:35:26;;;;;;;3.90;2.33;;;;;;;;;;4890558;28;98314;-74
2023/01/27 09:37:53;;;;;;;6.57;2.10;;;;;;;;;;4890185;28;99345;-74
2023/01/27 09:40:30;;;;;;;7.15;2.30;;;;;;;;;;4889331;28;99833;-74
2023/01/27 09:43:09;;;;;;;2.65;1.77;;;;;;;;;;4886838;28;98805;-75
2023/01/27 09:45:46;;;;;;;2.38;2.13;;;;;;;;;;4889969;28;99645;-75
2023/01/27 09:48:22;;;;;;;2.63;2.15;;;;;;;;;;4888035;28;100198;-74
2023/01/27 09:50:59;;;;;;;2.72;2.58;;;;;;;;;;4889442;28;98872;-74
2023/01/27 09:53:48;;;;;;;2.83;2.60;;;;;;;;;;4889913;28;100799;-73
2023/01/27 09:56:21;;;;;;;9.27;2.50;;;;;;;;;;4888248;28;98536;-74
2023/01/27 09:59:06;;;;;;;3.85;2.22;;;;;;;;;;4886386;28;99050;-75
2023/01/27 10:01:37;;;;;;;5.65;3.28;;;;;;;;;;4886244;28;99049;-73
2023/01/27 10:04:22;;;;;;;3.33;2.67;;;;;;;;;;4889875;28;98428;-74
2023/01/27 10:07:02;;;;;;;4.72;2.55;;;;;;;;;;4889538;28;99638;-74
2023/01/27 10:09:58;;;;;;;2.63;2.50;;;;;;;;;;4889772;28;99923;-73
2023/01/27 10:12:49;;;;;;;3.97;2.92;;;;;;;;;;4882271;28;98226;-74
2023/01/27 10:15:21;;;;;;;3.80;2.45;;;;;;;;;;4861659;28;99527;-73
2023/01/27 10:17:48;;;;;;;;;;;;;;;;;;4890561;28;99777;-74
2023/01/27 10:20:29;;;;;;;2.53;2.40;;;;;;;;;;4887207;28;129819;-73
2023/01/27 10:22:58;;;;;;;3.30;2.53;;;;;;;;;;4888547;28;100020;-75
2023/01/27 10:25:44;;;;;;;3.25;3.00;;;;;;;;;;4888495;28;98698;-74
2023/01/27 10:28:12;;;;;;;4.88;2.83;;;;;;;;;;4889563;28;99281;-74
2023/01/27 10:30:43;;;;;;;3.83;3.45;;;;;;;;;;4885908;28;100806;-74
2023/01/27 10:33:17;;;;;;;4.53;3.10;;;;;;;;;;4887594;28;98909;-74
2023/01/27 10:35:52;;;;;;;2.92;2.70;;;;;;;;;;4888258;28;99435;-74
2023/01/27 10:38:27;;;;;;;4.57;3.00;;;;;;;;;;4885986;28;99061;-74
2023/01/27 10:41:17;;;;;;;4.20;3.20;;;;;;;;;;4891169;28;98319;-73
2023/01/27 10:43:54;;;;;;;2.72;2.53;;;;;;;;;;4881270;28;99051;-73
2023/01/27 10:46:29;;;;;;;2.75;2.55;;;;;;;;;;4889531;28;98290;-73
2023/01/27 10:48:55;;;;;;;4.35;3.20;;;;;;;;;;4889216;28;99511;-74
2023/01/27 10:51:30;;;;;;;2.67;2.47;;;;;;;;;;4883467;28;100144;-74
2023/01/27 10:53:58;;;;;;;2.85;2.65;;;;;;;;;;4888896;28;98237;-74
2023/01/27 10:56:26;;;;;;;3.53;2.85;;;;;;;;;;4889364;28;99478;-74
2023/01/27 10:58:58;;;;;;;3.13;2.95;;;;;;;;;;4887997;28;99081;-73
2023/01/27 11:01:31;;;;;;;4.88;2.67;;;;;;;;;;4888571;28;99477;-74
2023/01/27 11:04:01;;;;;;;9.25;3.15;;;;;;;;;;4891884;28;99425;-74
2023/01/27 11:06:30;;;;;;;2.65;2.45;;;;;;;;;;4893212;28;98269;-73
2023/01/27 11:09:22;;;;;;;3.60;2.75;;;;;;;;;;4888780;28;98677;-74
2023/01/27 11:11:49;;;;;;;2.97;2.63;;;;;;;;;;4880310;28;100167;-73
2023/01/27 11:14:21;;;;;;;1.58;1.58;;;;;;;;;;4888315;28;98761;-73
2023/01/27 11:16:49;;;;;;;3.38;2.88;;;;;;;;;;4892425;28;99300;-73
2023/01/27 11:19:20;;;;;;;2.55;2.40;;;;;;;;;;4888819;28;100235;-73
2023/01/27 11:21:48;;;;;;;5.68;2.50;;;;;;;;;;4888544;28;98185;-73
2023/01/27 11:24:41;;;;;;;3.72;2.75;;;;;;;;;;4888155;28;99812;-74
2023/01/27 11:27:17;;;;;;;2.70;2.50;;;;;;;;;;4886064;28;98232;-74
2023/01/27 11:30:06;;;;;;;3.83;2.60;;;;;;;;;;4888470;28;99726;-74
2023/01/27 11:32:33;;;;;;;2.80;2.60;;;;;;;;;;4888751;28;99609;-73
2023/01/27 11:35:02;;;;;;;2.92;2.63;;;;;;;;;;4888078;28;98433;-73
2023/01/27 11:37:38;;;;;;;3.95;2.72;;;;;;;;;;4888693;28;99510;-74
2023/01/27 11:40:25;;;;;;;5.63;2.60;;;;;;;;;;4888674;28;100037;-72
2023/01/27 11:42:51;;;;;;;4.53;2.72;;;;;;;;;;4884547;28;98799;-74
2023/01/27 11:45:19;;;;;;;2.58;2.47;;;;;;;;;;4887452;28;99351;-73
2023/01/27 11:47:48;;;;;;;2.72;2.63;;;;;;;;;;4890225;28;99988;-73
2023/01/27 11:50:16;;;;;;;3.13;2.92;;;;;;;;;;4886069;28;99657;-73
2023/01/27 11:52:45;;;;;;;3.03;2.92;;;;;;;;;;4891463;28;100957;-72
2023/01/27 11:55:17;;;;;;;2.85;2.65;;;;;;;;;;4889153;28;98328;-73
2023/01/27 11:57:46;;;;;;;2.93;2.83;;;;;;;;;;4887699;28;99621;-72
2023/01/27 12:00:19;;;;;;;2.70;2.50;;;;;;;;;;4888078;28;100000;-73
2023/01/27 12:02:55;;;;;;;3.97;2.95;;;;;;;;;;4888124;28;98185;-74
2023/01/27 12:05:26;;;;;;;3.13;2.83;;;;;;;;;;4882799;28;99409;-73
2023/01/27 12:08:00;;;;;;;3.15;2.95;;;;;;;;;;4886639;28;99313;-74
2023/01/27 12:10:52;;;;;;;3.00;2.80;;;;;;;;;;4890432;28;98322;-73
2023/01/27 12:13:23;;;;;;;3.33;3.03;;;;;;;;;;4883583;28;99464;-73
2023/01/27 12:15:51;;;;;;;3.28;3.03;;;;;;;;;;4887653;28;98486;-74
2023/01/27 12:18:18;;;;;;;3.40;2.70;;;;;;;;;;4890782;28;99265;-74
2023/01/27 12:21:05;;;;;;;3.30;3.08;;;;;;;;;;4886547;28;100897;-73
2023/01/27 12:23:50;;;;;;;3.35;3.10;;;;;;;;;;4888992;28;98353;-74
2023/01/27 12:26:27;;;;;;;3.72;3.33;;;;;;;;;;4889741;28;98704;-73
2023/01/27 12:28:53;;;;;;;11.90;3.25;;;;;;;;;;4888260;28;99995;-74
2023/01/27 12:31:27;;;;;;;3.10;2.95;;;;;;;;;;4889020;28;99007;-72
2023/01/27 12:33:57;;;;;;;2.70;2.50;;;;;;;;;;4893281;28;99400;-73
2023/01/27 12:36:23;;;;;;;3.75;3.42;;;;;;;;;;4891366;28;98455;-72
2023/01/27 12:38:51;;;;;;;7.22;2.85;;;;;;;;;;4886981;28;99447;-73
2023/01/27 12:41:23;;;;;;;3.20;3.00;;;;;;;;;;4880097;28;99899;-73
2023/01/27 12:43:51;;;;;;;2.80;2.50;;;;;;;;;;4891202;28;98567;-73
2023/01/27 12:46:25;;;;;;;2.90;2.63;;;;;;;;;;4890832;28;100071;-73
2023/01/27 12:48:52;;;;;;;3.10;2.80;;;;;;;;;;4891200;28;99943;-74
2023/01/27 12:51:23;;;;;;;2.47;2.13;;;;;;;;;;4889147;28;99776;-73
2023/01/27 12:53:50;;;;;;;5.00;2.97;;;;;;;;;;4890702;28;99547;-73
2023/01/27 12:56:20;;;;;;;2.90;2.70;;;;;;;;;;4892037;28;99997;-73
2023/01/27 12:58:52;;;;;;;6.32;2.50;;;;;;;;;;4886412;28;99898;-73
2023/01/27 13:01:19;;;;;;;2.58;2.38;;;;;;;;;;4889244;28;100434;-73
2023/01/27 13:03:48;;;;;;;2.50;2.40;;;;;;;;;;4890452;28;98516;-72
2023/01/27 13:06:15;;;;;;;2.92;2.72;;;;;;;;;;4887912;28;98746;-72
2023/01/27 13:08:42;;;;;;;3.67;3.03;;;;;;;;;;4889434;28;101844;-72
2023/01/27 13:11:08;;;;;;;3.30;3.10;;;;;;;;;;4884745;28;99614;-72
2023/01/27 13:13:35;;;;;;;4.50;3.50;;;;;;;;;;4884333;28;99489;-72
2023/01/27 13:16:01;;;;;;;15.02;8.73;;;;;;;;;;4895685;28;100387;-72
2023/01/27 13:18:31;;;;;;;3.28;2.92;;;;;;;;;;4894260;28;98274;-73
2023/01/27 13:21:02;;;;;;;4.38;2.78;;;;;;;;;;4889792;28;99659;-72
2023/01/27 13:23:30;;;;;;;2.47;2.38;;;;;;;;;;4891517;28;98298;-72
2023/01/27 13:26:05;;;;;;;3.53;2.78;;;;;;;;;;4890255;28;99605;-72
2023/01/27 13:28:34;;;;;;;4.18;2.65;;;;;;;;;;4889853;28;100831;-73
2023/01/27 13:31:20;;;;;;;3.33;3.03;;;;;;;;;;4886782;28;98248;-72
2023/01/27 13:33:55;;;;;;;3.10;2.90;;;;;;;;;;4884533;28;99336;-73
2023/01/27 13:36:38;;;;;;;4.07;3.03;;;;;;;;;;4887587;28;100518;-73
2023/01/27 13:39:17;;;;;;;3.00;2.90;;;;;;;;;;4893348;28;98360;-72
2023/01/27 13:41:50;;;;;;;4.15;3.10;;;;;;;;;;4889388;28;99194;-72
2023/01/27 13:44:28;;;;;;;2.47;2.38;;;;;;;;;;4890194;28;99497;-73
2023/01/27 13:47:01;;;;;;;1.65;1.65;;;;;;;;;;4888393;28;99930;-73
2023/01/27 13:49:34;;;;;;;3.20;3.00;;;;;;;;;;4889691;28;100216;-72
2023/01/27 13:52:01;;;;;;;2.47;2.38;;;;;;;;;;4890298;28;98200;-72
2023/01/27 13:54:28;;;;;;;3.30;3.10;;;;;;;;;;4888935;28;98915;-73
2023/01/27 13:56:55;;;;;;;6.00;3.28;;;;;;;;;;4887429;28;99971;-73
2023/01/27 13:59:21;;;;;;;4.03;3.70;;;;;;;;;;4890316;28;98424;-73
2023/01/27 14:02:06;;;;;;;3.17;2.97;;;;;;;;;;4889846;28;98933;-73
2023/01/27 14:04:54;;;;;;;3.08;2.88;;;;;;;;;;4892214;28;98765;-72
2023/01/27 14:07:24;;;;;;;2.50;2.40;;;;;;;;;;4889913;28;98541;-72
2023/01/27 14:09:56;;;;;;;3.10;2.90;;;;;;;;;;4884192;28;100046;-72
2023/01/27 14:12:27;;;;;;;3.17;2.97;;;;;;;;;;4895360;28;98395;-73
2023/01/27 14:15:02;;;;;;;3.22;3.03;;;;;;;;;;4889736;28;99971;-74
2023/01/27 14:17:48;;;;;;;3.05;2.85;;;;;;;;;;4885757;28;100145;-73
2023/01/27 14:20:26;;;;;;;2.95;2.75;;;;;;;;;;4884788;28;98200;-73
2023/01/27 14:23:03;;;;;;;4.75;4.38;;;;;;;;;;4884710;28;99541;-74
2023/01/27 14:25:33;;;;;;;24.23;18.45;;;;;;;;;;4891474;28;100158;-73
2023/01/27 14:28:06;;;;;;;4.00;3.40;;;;;;;;;;4888726;28;101175;-73
2023/01/27 14:30:41;;;;;;;3.38;3.20;;;;;;;;;;4889224;28;100130;-73
2023/01/27 14:33:13;;;;;;;2.42;2.17;;;;;;;;;;4889945;28;98271;-74
2023/01/27 14:35:45;;;;;;;3.10;2.90;;;;;;;;;;4887945;28;99626;-74
2023/01/27 14:38:32;;;;;;;3.92;3.35;;;;;;;;;;4889283;28;100020;-73
2023/01/27 14:41:01;;;;;;;3.03;2.83;;;;;;;;;;4889427;28;98809;-73
2023/01/27 14:43:37;;;;;;;2.80;2.70;;;;;;;;;;4890366;28;99080;-74
2023/01/27 14:46:15;;;;;;;3.03;2.83;;;;;;;;;;4882547;28;99992;-73
2023/01/27 14:48:42;;;;;;;2.45;2.35;;;;;;;;;;4888374;28;98204;-74
2023/01/27 14:51:10;;;;;;;3.17;2.97;;;;;;;;;;4886658;28;98775;-72
2023/01/27 14:53:37;;;;;;;2.88;2.70;;;;;;;;;;4889164;28;99146;-74
2023/01/27 14:56:04;;;;;;;3.47;3.00;;;;;;;;;;4888015;28;100093;-73
2023/01/27 14:58:45;;;;;;;2.88;2.67;;;;;;;;;;4888125;28;100167;-74
2023/01/27 15:01:33;;;;;;;22.45;9.38;;;;;;;;;;4890459;28;98288;-73
2023/01/27 15:04:09;;;;;;;4.00;3.60;;;;;;;;;;4884221;28;98935;-73
2023/01/27 15:06:48;;;;;;;8.65;5.75;;;;;;;;;;4884370;28;100433;-73
2023/01/27 15:09:27;;;;;;;4.85;4.40;;;;;;;;;;4888796;28;98640;-73
2023/01/27 15:12:06;;;;;;;21.95;8.60;;;;;;;;;;4887356;28;98815;-74
2023/01/27 15:14:38;;;;;;;12.88;6.05;;;;;;;;;;4893199;28;98271;-73
2023/01/27 15:17:25;;;;;;;3.83;3.63;;;;;;;;;;4889095;28;99572;-74
2023/01/27 15:19:54;;;;;;;5.78;5.35;;;;;;;;;;4888735;28;99663;-74
2023/01/27 15:22:44;;;;;;;2.85;2.65;;;;;;;;;;4883628;28;98398;-74
2023/01/27 15:25:18;;;;;;;3.33;3.10;;;;;;;;;;4886242;28;99707;-74
2023/01/27 15:27:46;;;;;;;4.10;3.78;;;;;;;;;;4885816;28;99168;-72
2023/01/27 15:30:26;;;;;;;4.10;3.58;;;;;;;;;;4888281;28;99149;-73